Terminal Aerodrome Forecast
Issued by NWS Newport/Morehead City, NC

Home | Current Version | Previous Version | Graphics & Text | Print | Product List | Glossary On
Versions: 1 2 3 4 5 6 7 8 9 10 11 12
949
FTUS42 KMHX 190535
TAFEWN
TAF
KEWN 190535Z 1906/2006 24005KT P6SM BKN060
     FM191100 28004KT P6SM SCT070=

USA.gov is the U.S. government's official web portal to all federal, state and local government web resources and services.